sensor_id;sensor_type;location;lat;lon;timestamp;P1;durP1;ratioP1;P2;durP2;ratioP2
57191;SDS011;43052;52.588;13.396;2023-05-02T00:00:29;15.00;;;9.65;;
57191;SDS011;43052;52.588;13.396;2023-05-02T00:02:55;11.43;;;8.82;;
57191;SDS011;43052;52.588;13.396;2023-05-02T00:05:20;12.77;;;9.18;;
57191;SDS011;43052;52.588;13.396;2023-05-02T00:07:45;11.95;;;9.80;;
57191;SDS011;43052;52.588;13.396;2023-05-02T00:10:11;14.20;;;9.40;;
57191;SDS011;43052;52.588;13.396;2023-05-02T00:12:37;14.52;;;9.85;;
57191;SDS011;43052;52.588;13.396;2023-05-02T00:15:03;10.35;;;8.77;;
57191;SDS011;43052;52.588;13.396;2023-05-02T00:17:29;9.15;;;8.07;;
57191;SDS011;43052;52.588;13.396;2023-05-02T00:19:54;11.02;;;9.32;;
57191;SDS011;43052;52.588;13.396;2023-05-02T00:22:20;11.50;;;8.98;;
57191;SDS011;43052;52.588;13.396;2023-05-02T00:24:45;11.77;;;8.88;;
57191;SDS011;43052;52.588;13.396;2023-05-02T00:27:11;12.93;;;9.88;;
57191;SDS011;43052;52.588;13.396;2023-05-02T00:29:36;12.30;;;9.48;;
57191;SDS011;43052;52.588;13.396;2023-05-02T00:32:01;12.02;;;9.25;;
57191;SDS011;43052;52.588;13.396;2023-05-02T00:34:30;11.77;;;9.68;;
57191;SDS011;43052;52.588;13.396;2023-05-02T00:36:55;12.27;;;9.20;;
57191;SDS011;43052;52.588;13.396;2023-05-02T00:39:21;12.75;;;9.00;;
57191;SDS011;43052;52.588;13.396;2023-05-02T00:41:46;11.90;;;9.38;;
57191;SDS011;43052;52.588;13.396;2023-05-02T00:44:11;10.50;;;8.88;;
57191;SDS011;43052;52.588;13.396;2023-05-02T00:46:36;13.07;;;9.13;;
57191;SDS011;43052;52.588;13.396;2023-05-02T00:49:02;13.02;;;9.90;;
57191;SDS011;43052;52.588;13.396;2023-05-02T00:51:27;11.13;;;9.18;;
57191;SDS011;43052;52.588;13.396;2023-05-02T00:53:53;11.70;;;9.52;;
57191;SDS011;43052;52.588;13.396;2023-05-02T00:56:18;13.40;;;9.80;;
57191;SDS011;43052;52.588;13.396;2023-05-02T00:58:44;13.45;;;9.85;;
57191;SDS011;43052;52.588;13.396;2023-05-02T01:04:18;12.95;;;9.20;;
57191;SDS011;43052;52.588;13.396;2023-05-02T01:09:56;12.13;;;9.32;;
57191;SDS011;43052;52.588;13.396;2023-05-02T01:12:41;10.55;;;8.20;;
57191;SDS011;43052;52.588;13.396;2023-05-02T01:15:10;10.63;;;9.00;;
57191;SDS011;43052;52.588;13.396;2023-05-02T01:17:40;11.35;;;8.52;;
57191;SDS011;43052;52.588;13.396;2023-05-02T01:20:08;11.55;;;8.35;;
57191;SDS011;43052;52.588;13.396;2023-05-02T01:22:45;12.70;;;8.68;;
57191;SDS011;43052;52.588;13.396;2023-05-02T01:31:00;10.30;;;8.02;;
57191;SDS011;43052;52.588;13.396;2023-05-02T01:33:28;9.43;;;7.63;;
57191;SDS011;43052;52.588;13.396;2023-05-02T01:35:55;10.20;;;7.22;;
57191;SDS011;43052;52.588;13.396;2023-05-02T01:38:22;10.75;;;7.40;;
57191;SDS011;43052;52.588;13.396;2023-05-02T01:40:49;10.25;;;7.65;;
57191;SDS011;43052;52.588;13.396;2023-05-02T01:43:16;12.57;;;7.55;;
57191;SDS011;43052;52.588;13.396;2023-05-02T01:45:44;9.75;;;7.20;;
57191;SDS011;43052;52.588;13.396;2023-05-02T01:48:12;9.40;;;7.07;;
57191;SDS011;43052;52.588;13.396;2023-05-02T01:50:40;9.38;;;6.90;;
57191;SDS011;43052;52.588;13.396;2023-05-02T01:53:08;10.43;;;6.97;;
57191;SDS011;43052;52.588;13.396;2023-05-02T01:55:37;10.63;;;7.05;;
57191;SDS011;43052;52.588;13.396;2023-05-02T01:58:04;9.20;;;6.53;;
57191;SDS011;43052;52.588;13.396;2023-05-02T02:00:31;7.97;;;6.72;;
57191;SDS011;43052;52.588;13.396;2023-05-02T02:02:57;12.43;;;7.45;;
57191;SDS011;43052;52.588;13.396;2023-05-02T02:05:24;10.88;;;6.65;;
57191;SDS011;43052;52.588;13.396;2023-05-02T02:07:50;10.60;;;6.82;;
57191;SDS011;43052;52.588;13.396;2023-05-02T02:10:16;10.68;;;6.55;;
57191;SDS011;43052;52.588;13.396;2023-05-02T02:12:42;9.38;;;6.55;;
57191;SDS011;43052;52.588;13.396;2023-05-02T02:15:12;9.27;;;6.55;;
57191;SDS011;43052;52.588;13.396;2023-05-02T02:17:53;11.13;;;6.38;;
57191;SDS011;43052;52.588;13.396;2023-05-02T02:20:22;8.70;;;6.65;;
57191;SDS011;43052;52.588;13.396;2023-05-02T02:22:49;10.13;;;6.50;;
57191;SDS011;43052;52.588;13.396;2023-05-02T02:25:16;8.23;;;6.05;;
57191;SDS011;43052;52.588;13.396;2023-05-02T02:27:42;8.35;;;6.00;;
57191;SDS011;43052;52.588;13.396;2023-05-02T02:30:08;8.30;;;6.18;;
57191;SDS011;43052;52.588;13.396;2023-05-02T02:32:34;8.15;;;6.15;;
57191;SDS011;43052;52.588;13.396;2023-05-02T02:34:59;9.93;;;6.40;;
57191;SDS011;43052;52.588;13.396;2023-05-02T02:37:30;10.07;;;6.05;;
57191;SDS011;43052;52.588;13.396;2023-05-02T02:40:00;11.75;;;6.15;;
57191;SDS011;43052;52.588;13.396;2023-05-02T02:48:24;7.05;;;6.03;;
57191;SDS011;43052;52.588;13.396;2023-05-02T02:51:06;7.75;;;5.80;;
57191;SDS011;43052;52.588;13.396;2023-05-02T02:53:57;9.20;;;6.07;;
57191;SDS011;43052;52.588;13.396;2023-05-02T02:56:48;7.35;;;5.78;;
57191;SDS011;43052;52.588;13.396;2023-05-02T02:59:19;9.50;;;6.13;;
57191;SDS011;43052;52.588;13.396;2023-05-02T03:01:54;7.85;;;6.40;;
57191;SDS011;43052;52.588;13.396;2023-05-02T03:04:26;11.10;;;6.15;;
57191;SDS011;43052;52.588;13.396;2023-05-02T03:06:53;8.38;;;6.25;;
57191;SDS011;43052;52.588;13.396;2023-05-02T03:09:18;9.27;;;5.88;;
57191;SDS011;43052;52.588;13.396;2023-05-02T03:11:43;7.93;;;6.25;;
57191;SDS011;43052;52.588;13.396;2023-05-02T03:14:10;8.65;;;6.32;;
57191;SDS011;43052;52.588;13.396;2023-05-02T03:16:36;9.90;;;5.97;;
57191;SDS011;43052;52.588;13.396;2023-05-02T03:19:03;7.05;;;5.72;;
57191;SDS011;43052;52.588;13.396;2023-05-02T03:21:29;10.30;;;6.15;;
57191;SDS011;43052;52.588;13.396;2023-05-02T03:23:58;7.45;;;5.57;;
57191;SDS011;43052;52.588;13.396;2023-05-02T03:26:24;9.43;;;5.28;;
57191;SDS011;43052;52.588;13.396;2023-05-02T03:28:50;7.72;;;5.20;;
57191;SDS011;43052;52.588;13.396;2023-05-02T03:31:15;8.88;;;6.35;;
57191;SDS011;43052;52.588;13.396;2023-05-02T03:33:41;8.23;;;5.07;;
57191;SDS011;43052;52.588;13.396;2023-05-02T03:36:06;7.07;;;5.20;;
57191;SDS011;43052;52.588;13.396;2023-05-02T03:38:32;10.20;;;5.68;;
57191;SDS011;43052;52.588;13.396;2023-05-02T03:40:57;9.95;;;5.78;;
57191;SDS011;43052;52.588;13.396;2023-05-02T03:43:22;8.30;;;5.22;;
57191;SDS011;43052;52.588;13.396;2023-05-02T03:45:47;7.05;;;4.70;;
57191;SDS011;43052;52.588;13.396;2023-05-02T03:48:13;10.13;;;5.30;;
57191;SDS011;43052;52.588;13.396;2023-05-02T03:50:38;12.13;;;5.63;;
57191;SDS011;43052;52.588;13.396;2023-05-02T03:53:03;9.15;;;5.25;;
57191;SDS011;43052;52.588;13.396;2023-05-02T03:55:28;7.93;;;4.65;;
57191;SDS011;43052;52.588;13.396;2023-05-02T03:57:54;7.35;;;4.57;;
57191;SDS011;43052;52.588;13.396;2023-05-02T04:00:19;9.82;;;5.07;;
57191;SDS011;43052;52.588;13.396;2023-05-02T04:02:44;8.25;;;4.68;;
57191;SDS011;43052;52.588;13.396;2023-05-02T04:05:10;8.43;;;5.10;;
57191;SDS011;43052;52.588;13.396;2023-05-02T04:07:35;7.82;;;4.85;;
57191;SDS011;43052;52.588;13.396;2023-05-02T04:10:00;9.25;;;5.28;;
57191;SDS011;43052;52.588;13.396;2023-05-02T04:12:25;10.50;;;5.55;;
57191;SDS011;43052;52.588;13.396;2023-05-02T04:14:51;7.82;;;4.93;;
57191;SDS011;43052;52.588;13.396;2023-05-02T04:17:16;11.32;;;5.85;;
57191;SDS011;43052;52.588;13.396;2023-05-02T04:19:41;9.00;;;5.93;;
57191;SDS011;43052;52.588;13.396;2023-05-02T04:22:06;9.25;;;5.60;;
57191;SDS011;43052;52.588;13.396;2023-05-02T04:24:32;7.22;;;5.53;;
57191;SDS011;43052;52.588;13.396;2023-05-02T04:26:57;9.25;;;5.30;;
57191;SDS011;43052;52.588;13.396;2023-05-02T04:29:22;8.77;;;5.25;;
57191;SDS011;43052;52.588;13.396;2023-05-02T04:31:47;8.60;;;5.45;;
57191;SDS011;43052;52.588;13.396;2023-05-02T04:34:14;8.02;;;5.20;;
57191;SDS011;43052;52.588;13.396;2023-05-02T04:36:40;7.47;;;5.00;;
57191;SDS011;43052;52.588;13.396;2023-05-02T04:39:05;8.93;;;5.32;;
57191;SDS011;43052;52.588;13.396;2023-05-02T04:41:31;8.18;;;5.45;;
57191;SDS011;43052;52.588;13.396;2023-05-02T04:43:57;10.02;;;5.13;;
57191;SDS011;43052;52.588;13.396;2023-05-02T04:46:22;10.75;;;5.38;;
57191;SDS011;43052;52.588;13.396;2023-05-02T04:48:48;8.60;;;6.45;;
57191;SDS011;43052;52.588;13.396;2023-05-02T04:51:13;6.78;;;4.75;;
57191;SDS011;43052;52.588;13.396;2023-05-02T04:53:38;9.07;;;4.68;;
57191;SDS011;43052;52.588;13.396;2023-05-02T04:56:03;20.10;;;5.70;;
57191;SDS011;43052;52.588;13.396;2023-05-02T04:58:29;9.27;;;4.40;;
57191;SDS011;43052;52.588;13.396;2023-05-02T05:00:54;8.70;;;4.38;;
57191;SDS011;43052;52.588;13.396;2023-05-02T05:03:20;6.55;;;4.28;;
57191;SDS011;43052;52.588;13.396;2023-05-02T05:05:45;7.57;;;4.82;;
57191;SDS011;43052;52.588;13.396;2023-05-02T05:08:11;6.82;;;4.00;;
57191;SDS011;43052;52.588;13.396;2023-05-02T05:10:36;8.13;;;4.70;;
57191;SDS011;43052;52.588;13.396;2023-05-02T05:13:01;8.52;;;4.30;;
57191;SDS011;43052;52.588;13.396;2023-05-02T05:15:28;7.72;;;4.57;;
57191;SDS011;43052;52.588;13.396;2023-05-02T05:17:53;7.70;;;4.35;;
57191;SDS011;43052;52.588;13.396;2023-05-02T05:20:18;8.95;;;4.57;;
57191;SDS011;43052;52.588;13.396;2023-05-02T05:22:43;9.00;;;4.70;;
57191;SDS011;43052;52.588;13.396;2023-05-02T05:25:09;8.30;;;4.88;;
57191;SDS011;43052;52.588;13.396;2023-05-02T05:27:34;7.30;;;4.72;;
57191;SDS011;43052;52.588;13.396;2023-05-02T05:30:00;8.13;;;4.38;;
57191;SDS011;43052;52.588;13.396;2023-05-02T05:32:25;6.97;;;4.32;;
57191;SDS011;43052;52.588;13.396;2023-05-02T05:34:51;8.73;;;4.55;;
57191;SDS011;43052;52.588;13.396;2023-05-02T05:37:17;6.63;;;4.45;;
57191;SDS011;43052;52.588;13.396;2023-05-02T05:39:43;6.80;;;4.55;;
57191;SDS011;43052;52.588;13.396;2023-05-02T05:42:08;9.10;;;4.68;;
57191;SDS011;43052;52.588;13.396;2023-05-02T05:44:33;6.57;;;4.38;;
57191;SDS011;43052;52.588;13.396;2023-05-02T05:46:59;7.78;;;4.97;;
57191;SDS011;43052;52.588;13.396;2023-05-02T05:49:25;8.32;;;4.78;;
57191;SDS011;43052;52.588;13.396;2023-05-02T05:51:50;8.68;;;5.07;;
57191;SDS011;43052;52.588;13.396;2023-05-02T05:54:15;6.03;;;4.50;;
57191;SDS011;43052;52.588;13.396;2023-05-02T05:56:41;8.57;;;4.88;;
57191;SDS011;43052;52.588;13.396;2023-05-02T05:59:07;8.43;;;4.93;;
57191;SDS011;43052;52.588;13.396;2023-05-02T06:01:32;8.27;;;5.32;;
57191;SDS011;43052;52.588;13.396;2023-05-02T06:03:58;8.95;;;5.35;;
57191;SDS011;43052;52.588;13.396;2023-05-02T06:06:23;11.40;;;5.47;;
57191;SDS011;43052;52.588;13.396;2023-05-02T06:08:48;10.75;;;5.85;;
57191;SDS011;43052;52.588;13.396;2023-05-02T06:11:13;8.18;;;6.50;;
57191;SDS011;43052;52.588;13.396;2023-05-02T06:13:39;7.82;;;5.82;;
57191;SDS011;43052;52.588;13.396;2023-05-02T06:16:05;9.80;;;5.63;;
57191;SDS011;43052;52.588;13.396;2023-05-02T06:18:30;8.73;;;5.70;;
57191;SDS011;43052;52.588;13.396;2023-05-02T06:20:56;16.45;;;8.38;;
57191;SDS011;43052;52.588;13.396;2023-05-02T06:23:21;12.98;;;8.00;;
57191;SDS011;43052;52.588;13.396;2023-05-02T06:25:47;8.88;;;6.25;;
57191;SDS011;43052;52.588;13.396;2023-05-02T06:28:12;11.75;;;7.75;;
57191;SDS011;43052;52.588;13.396;2023-05-02T06:30:37;10.90;;;7.28;;
57191;SDS011;43052;52.588;13.396;2023-05-02T06:33:03;8.63;;;6.78;;
57191;SDS011;43052;52.588;13.396;2023-05-02T06:35:29;10.68;;;7.38;;
57191;SDS011;43052;52.588;13.396;2023-05-02T06:37:54;10.95;;;7.35;;
57191;SDS011;43052;52.588;13.396;2023-05-02T06:40:19;8.93;;;6.57;;
57191;SDS011;43052;52.588;13.396;2023-05-02T06:42:44;10.13;;;7.10;;
57191;SDS011;43052;52.588;13.396;2023-05-02T06:45:10;12.57;;;7.30;;
57191;SDS011;43052;52.588;13.396;2023-05-02T06:47:35;8.73;;;6.50;;
57191;SDS011;43052;52.588;13.396;2023-05-02T06:50:00;8.93;;;7.00;;
57191;SDS011;43052;52.588;13.396;2023-05-02T06:52:25;12.20;;;6.43;;
57191;SDS011;43052;52.588;13.396;2023-05-02T06:54:51;8.13;;;6.38;;
57191;SDS011;43052;52.588;13.396;2023-05-02T06:57:16;9.00;;;5.82;;
57191;SDS011;43052;52.588;13.396;2023-05-02T06:59:41;7.40;;;5.38;;
57191;SDS011;43052;52.588;13.396;2023-05-02T07:02:07;9.30;;;5.72;;
57191;SDS011;43052;52.588;13.396;2023-05-02T07:04:32;7.70;;;5.30;;
57191;SDS011;43052;52.588;13.396;2023-05-02T07:06:57;7.83;;;5.30;;
57191;SDS011;43052;52.588;13.396;2023-05-02T07:09:23;9.07;;;5.97;;
57191;SDS011;43052;52.588;13.396;2023-05-02T07:11:49;7.60;;;5.70;;
57191;SDS011;43052;52.588;13.396;2023-05-02T07:14:14;6.80;;;5.70;;
57191;SDS011;43052;52.588;13.396;2023-05-02T07:16:39;9.82;;;5.90;;
57191;SDS011;43052;52.588;13.396;2023-05-02T07:19:06;9.70;;;6.10;;
57191;SDS011;43052;52.588;13.396;2023-05-02T07:21:31;8.02;;;5.35;;
57191;SDS011;43052;52.588;13.396;2023-05-02T07:23:57;6.72;;;5.28;;
57191;SDS011;43052;52.588;13.396;2023-05-02T07:26:23;7.50;;;5.70;;
57191;SDS011;43052;52.588;13.396;2023-05-02T07:28:49;7.20;;;5.47;;
57191;SDS011;43052;52.588;13.396;2023-05-02T07:31:14;8.57;;;5.20;;
57191;SDS011;43052;52.588;13.396;2023-05-02T07:33:39;8.05;;;5.75;;
57191;SDS011;43052;52.588;13.396;2023-05-02T07:36:05;7.28;;;5.40;;
57191;SDS011;43052;52.588;13.396;2023-05-02T07:38:30;7.72;;;5.53;;
57191;SDS011;43052;52.588;13.396;2023-05-02T07:40:59;7.82;;;5.30;;
57191;SDS011;43052;52.588;13.396;2023-05-02T07:43:24;7.00;;;5.38;;
57191;SDS011;43052;52.588;13.396;2023-05-02T07:45:50;7.90;;;5.07;;
57191;SDS011;43052;52.588;13.396;2023-05-02T07:48:15;7.35;;;5.95;;
57191;SDS011;43052;52.588;13.396;2023-05-02T07:50:41;8.20;;;4.80;;
57191;SDS011;43052;52.588;13.396;2023-05-02T07:53:06;6.38;;;5.00;;
57191;SDS011;43052;52.588;13.396;2023-05-02T07:55:31;6.75;;;4.82;;
57191;SDS011;43052;52.588;13.396;2023-05-02T07:57:57;8.98;;;5.45;;
57191;SDS011;43052;52.588;13.396;2023-05-02T08:00:22;6.82;;;4.45;;
57191;SDS011;43052;52.588;13.396;2023-05-02T08:02:47;7.68;;;5.07;;
57191;SDS011;43052;52.588;13.396;2023-05-02T08:05:13;7.32;;;4.35;;
57191;SDS011;43052;52.588;13.396;2023-05-02T08:07:38;10.30;;;5.60;;
57191;SDS011;43052;52.588;13.396;2023-05-02T08:10:06;5.78;;;3.22;;
57191;SDS011;43052;52.588;13.396;2023-05-02T08:12:36;5.40;;;3.63;;
57191;SDS011;43052;52.588;13.396;2023-05-02T08:15:06;6.00;;;3.85;;
57191;SDS011;43052;52.588;13.396;2023-05-02T08:17:31;5.38;;;3.97;;
57191;SDS011;43052;52.588;13.396;2023-05-02T08:19:57;5.25;;;3.70;;
57191;SDS011;43052;52.588;13.396;2023-05-02T08:22:22;5.75;;;3.95;;
57191;SDS011;43052;52.588;13.396;2023-05-02T08:24:47;5.65;;;3.78;;
57191;SDS011;43052;52.588;13.396;2023-05-02T08:27:13;6.28;;;4.00;;
57191;SDS011;43052;52.588;13.396;2023-05-02T08:29:38;6.55;;;3.88;;
57191;SDS011;43052;52.588;13.396;2023-05-02T08:32:03;6.80;;;4.85;;
57191;SDS011;43052;52.588;13.396;2023-05-02T08:34:29;8.00;;;4.43;;
57191;SDS011;43052;52.588;13.396;2023-05-02T08:36:54;8.40;;;4.65;;
57191;SDS011;43052;52.588;13.396;2023-05-02T08:39:20;7.55;;;4.93;;
57191;SDS011;43052;52.588;13.396;2023-05-02T08:41:45;6.88;;;4.45;;
57191;SDS011;43052;52.588;13.396;2023-05-02T08:44:10;7.85;;;4.78;;
57191;SDS011;43052;52.588;13.396;2023-05-02T08:46:35;8.82;;;4.85;;
57191;SDS011;43052;52.588;13.396;2023-05-02T08:49:05;9.45;;;4.93;;
57191;SDS011;43052;52.588;13.396;2023-05-02T08:51:32;9.30;;;5.53;;
57191;SDS011;43052;52.588;13.396;2023-05-02T08:53:59;9.13;;;4.90;;
57191;SDS011;43052;52.588;13.396;2023-05-02T08:56:26;7.40;;;4.72;;
57191;SDS011;43052;52.588;13.396;2023-05-02T08:58:51;7.80;;;4.50;;
57191;SDS011;43052;52.588;13.396;2023-05-02T09:01:18;6.93;;;4.25;;
57191;SDS011;43052;52.588;13.396;2023-05-02T09:03:47;7.97;;;4.65;;
57191;SDS011;43052;52.588;13.396;2023-05-02T09:06:16;8.30;;;4.72;;
57191;SDS011;43052;52.588;13.396;2023-05-02T09:08:44;7.65;;;4.78;;
57191;SDS011;43052;52.588;13.396;2023-05-02T09:11:16;8.10;;;4.95;;
57191;SDS011;43052;52.588;13.396;2023-05-02T09:13:48;9.10;;;4.85;;
57191;SDS011;43052;52.588;13.396;2023-05-02T09:16:16;7.95;;;4.68;;
57191;SDS011;43052;52.588;13.396;2023-05-02T09:18:44;9.07;;;4.47;;
57191;SDS011;43052;52.588;13.396;2023-05-02T09:21:12;7.30;;;4.30;;
57191;SDS011;43052;52.588;13.396;2023-05-02T09:24:00;7.05;;;4.57;;
57191;SDS011;43052;52.588;13.396;2023-05-02T09:26:26;6.95;;;4.93;;
57191;SDS011;43052;52.588;13.396;2023-05-02T09:28:56;6.50;;;4.45;;
57191;SDS011;43052;52.588;13.396;2023-05-02T09:31:23;6.85;;;4.35;;
57191;SDS011;43052;52.588;13.396;2023-05-02T09:34:08;9.52;;;4.45;;
57191;SDS011;43052;52.588;13.396;2023-05-02T09:36:41;6.40;;;4.03;;
57191;SDS011;43052;52.588;13.396;2023-05-02T09:39:09;7.45;;;4.68;;
57191;SDS011;43052;52.588;13.396;2023-05-02T09:41:39;6.70;;;3.95;;
57191;SDS011;43052;52.588;13.396;2023-05-02T09:44:06;6.90;;;3.90;;
57191;SDS011;43052;52.588;13.396;2023-05-02T09:46:38;4.43;;;3.00;;
57191;SDS011;43052;52.588;13.396;2023-05-02T09:49:04;5.85;;;3.45;;
57191;SDS011;43052;52.588;13.396;2023-05-02T09:51:29;4.70;;;3.10;;
57191;SDS011;43052;52.588;13.396;2023-05-02T09:53:55;5.75;;;3.47;;
57191;SDS011;43052;52.588;13.396;2023-05-02T09:56:20;5.00;;;3.40;;
57191;SDS011;43052;52.588;13.396;2023-05-02T09:58:45;5.50;;;3.45;;
57191;SDS011;43052;52.588;13.396;2023-05-02T10:01:14;4.78;;;3.28;;
57191;SDS011;43052;52.588;13.396;2023-05-02T10:03:41;4.50;;;3.42;;
57191;SDS011;43052;52.588;13.396;2023-05-02T10:06:10;6.45;;;3.60;;
57191;SDS011;43052;52.588;13.396;2023-05-02T10:08:36;5.80;;;2.85;;
57191;SDS011;43052;52.588;13.396;2023-05-02T10:11:04;5.40;;;3.38;;
57191;SDS011;43052;52.588;13.396;2023-05-02T10:13:33;5.00;;;3.20;;
57191;SDS011;43052;52.588;13.396;2023-05-02T10:16:03;7.35;;;3.10;;
57191;SDS011;43052;52.588;13.396;2023-05-02T10:21:27;3.50;;;2.75;;
57191;SDS011;43052;52.588;13.396;2023-05-02T10:23:52;4.97;;;3.53;;
57191;SDS011;43052;52.588;13.396;2023-05-02T10:26:18;4.88;;;2.88;;
57191;SDS011;43052;52.588;13.396;2023-05-02T10:28:47;4.57;;;3.05;;
57191;SDS011;43052;52.588;13.396;2023-05-02T10:31:13;3.75;;;2.58;;
57191;SDS011;43052;52.588;13.396;2023-05-02T10:33:39;4.95;;;2.70;;
57191;SDS011;43052;52.588;13.396;2023-05-02T10:36:08;6.25;;;2.97;;
57191;SDS011;43052;52.588;13.396;2023-05-02T10:38:37;4.63;;;2.80;;
57191;SDS011;43052;52.588;13.396;2023-05-02T10:41:05;5.57;;;3.00;;
57191;SDS011;43052;52.588;13.396;2023-05-02T10:43:34;5.25;;;3.17;;
57191;SDS011;43052;52.588;13.396;2023-05-02T10:46:01;6.03;;;3.10;;
57191;SDS011;43052;52.588;13.396;2023-05-02T10:48:27;6.22;;;4.25;;
57191;SDS011;43052;52.588;13.396;2023-05-02T10:50:54;10.60;;;4.65;;
57191;SDS011;43052;52.588;13.396;2023-05-02T10:53:31;9.15;;;5.35;;
57191;SDS011;43052;52.588;13.396;2023-05-02T10:58:35;12.13;;;6.70;;
57191;SDS011;43052;52.588;13.396;2023-05-02T11:04:02;10.73;;;5.88;;
57191;SDS011;43052;52.588;13.396;2023-05-02T11:06:33;10.57;;;5.45;;
57191;SDS011;43052;52.588;13.396;2023-05-02T11:09:28;11.88;;;5.65;;
57191;SDS011;43052;52.588;13.396;2023-05-02T11:11:51;11.95;;;5.65;;
57191;SDS011;43052;52.588;13.396;2023-05-02T11:22:46;11.43;;;5.13;;
57191;SDS011;43052;52.588;13.396;2023-05-02T11:24:51;11.13;;;5.32;;
57191;SDS011;43052;52.588;13.396;2023-05-02T11:30:13;8.82;;;4.75;;
57191;SDS011;43052;52.588;13.396;2023-05-02T11:35:23;8.30;;;3.92;;
57191;SDS011;43052;52.588;13.396;2023-05-02T11:37:55;7.78;;;3.72;;
57191;SDS011;43052;52.588;13.396;2023-05-02T11:40:25;9.70;;;3.75;;
57191;SDS011;43052;52.588;13.396;2023-05-02T11:42:52;8.98;;;3.33;;
57191;SDS011;43052;52.588;13.396;2023-05-02T11:45:17;7.13;;;3.70;;
57191;SDS011;43052;52.588;13.396;2023-05-02T11:47:44;8.38;;;3.35;;
57191;SDS011;43052;52.588;13.396;2023-05-02T11:50:13;9.20;;;3.50;;
57191;SDS011;43052;52.588;13.396;2023-05-02T11:52:39;8.38;;;3.08;;
57191;SDS011;43052;52.588;13.396;2023-05-02T11:55:06;7.32;;;3.22;;
57191;SDS011;43052;52.588;13.396;2023-05-02T11:57:33;5.28;;;2.95;;
57191;SDS011;43052;52.588;13.396;2023-05-02T11:59:58;5.63;;;3.00;;
57191;SDS011;43052;52.588;13.396;2023-05-02T12:02:34;6.80;;;3.50;;
57191;SDS011;43052;52.588;13.396;2023-05-02T12:05:04;8.35;;;3.85;;
57191;SDS011;43052;52.588;13.396;2023-05-02T12:10:06;8.73;;;3.53;;
57191;SDS011;43052;52.588;13.396;2023-05-02T12:12:32;9.05;;;3.45;;
57191;SDS011;43052;52.588;13.396;2023-05-02T12:17:31;11.70;;;3.53;;
57191;SDS011;43052;52.588;13.396;2023-05-02T12:19:57;8.60;;;4.13;;
57191;SDS011;43052;52.588;13.396;2023-05-02T12:22:23;7.60;;;3.50;;
57191;SDS011;43052;52.588;13.396;2023-05-02T12:24:49;8.38;;;4.07;;
57191;SDS011;43052;52.588;13.396;2023-05-02T12:27:17;7.72;;;3.38;;
57191;SDS011;43052;52.588;13.396;2023-05-02T12:29:43;9.30;;;3.70;;
57191;SDS011;43052;52.588;13.396;2023-05-02T12:32:12;8.35;;;3.92;;
57191;SDS011;43052;52.588;13.396;2023-05-02T12:34:39;8.98;;;4.30;;
57191;SDS011;43052;52.588;13.396;2023-05-02T12:37:05;8.15;;;3.75;;
57191;SDS011;43052;52.588;13.396;2023-05-02T12:39:39;10.95;;;4.03;;
57191;SDS011;43052;52.588;13.396;2023-05-02T12:42:11;13.20;;;4.63;;
57191;SDS011;43052;52.588;13.396;2023-05-02T12:44:38;7.15;;;3.78;;
57191;SDS011;43052;52.588;13.396;2023-05-02T12:47:06;7.97;;;4.82;;
57191;SDS011;43052;52.588;13.396;2023-05-02T12:49:32;9.65;;;3.92;;
57191;SDS011;43052;52.588;13.396;2023-05-02T12:52:12;12.25;;;4.10;;
57191;SDS011;43052;52.588;13.396;2023-05-02T12:54:37;10.48;;;4.05;;
57191;SDS011;43052;52.588;13.396;2023-05-02T12:57:02;9.93;;;4.20;;
57191;SDS011;43052;52.588;13.396;2023-05-02T12:59:31;12.35;;;4.68;;
57191;SDS011;43052;52.588;13.396;2023-05-02T13:01:56;9.77;;;4.55;;
57191;SDS011;43052;52.588;13.396;2023-05-02T13:04:38;8.80;;;4.70;;
57191;SDS011;43052;52.588;13.396;2023-05-02T13:07:05;10.68;;;4.45;;
57191;SDS011;43052;52.588;13.396;2023-05-02T13:09:31;9.93;;;4.43;;
57191;SDS011;43052;52.588;13.396;2023-05-02T13:11:56;11.68;;;4.57;;
57191;SDS011;43052;52.588;13.396;2023-05-02T13:14:23;7.72;;;4.05;;
57191;SDS011;43052;52.588;13.396;2023-05-02T13:16:51;9.95;;;4.20;;
57191;SDS011;43052;52.588;13.396;2023-05-02T13:19:17;7.70;;;3.97;;
57191;SDS011;43052;52.588;13.396;2023-05-02T13:21:43;9.27;;;4.20;;
57191;SDS011;43052;52.588;13.396;2023-05-02T13:24:08;6.78;;;3.95;;
57191;SDS011;43052;52.588;13.396;2023-05-02T13:26:33;9.80;;;4.60;;
57191;SDS011;43052;52.588;13.396;2023-05-02T13:28:59;11.68;;;4.55;;
57191;SDS011;43052;52.588;13.396;2023-05-02T13:31:24;7.70;;;3.97;;
57191;SDS011;43052;52.588;13.396;2023-05-02T13:33:49;8.27;;;4.00;;
57191;SDS011;43052;52.588;13.396;2023-05-02T13:36:14;11.63;;;4.13;;
57191;SDS011;43052;52.588;13.396;2023-05-02T13:38:40;8.75;;;3.88;;
57191;SDS011;43052;52.588;13.396;2023-05-02T13:41:05;9.63;;;3.72;;
57191;SDS011;43052;52.588;13.396;2023-05-02T13:43:30;6.88;;;4.00;;
57191;SDS011;43052;52.588;13.396;2023-05-02T13:45:56;9.88;;;3.67;;
57191;SDS011;43052;52.588;13.396;2023-05-02T13:48:30;8.35;;;3.90;;
57191;SDS011;43052;52.588;13.396;2023-05-02T13:50:56;8.88;;;4.07;;
57191;SDS011;43052;52.588;13.396;2023-05-02T13:56:05;9.93;;;4.22;;
57191;SDS011;43052;52.588;13.396;2023-05-02T13:58:31;8.15;;;4.18;;
57191;SDS011;43052;52.588;13.396;2023-05-02T14:00:56;7.57;;;3.88;;
57191;SDS011;43052;52.588;13.396;2023-05-02T14:03:21;8.63;;;3.80;;
57191;SDS011;43052;52.588;13.396;2023-05-02T14:05:47;9.82;;;3.75;;
57191;SDS011;43052;52.588;13.396;2023-05-02T14:08:12;11.45;;;5.95;;
57191;SDS011;43052;52.588;13.396;2023-05-02T14:10:42;7.75;;;4.00;;
57191;SDS011;43052;52.588;13.396;2023-05-02T14:13:07;8.13;;;4.07;;
57191;SDS011;43052;52.588;13.396;2023-05-02T14:15:32;8.02;;;3.88;;
57191;SDS011;43052;52.588;13.396;2023-05-02T14:17:57;6.93;;;3.75;;
57191;SDS011;43052;52.588;13.396;2023-05-02T14:20:23;8.85;;;3.70;;
57191;SDS011;43052;52.588;13.396;2023-05-02T14:22:48;7.20;;;3.55;;
57191;SDS011;43052;52.588;13.396;2023-05-02T14:25:14;8.60;;;3.45;;
57191;SDS011;43052;52.588;13.396;2023-05-02T14:27:39;8.98;;;3.60;;
57191;SDS011;43052;52.588;13.396;2023-05-02T14:30:06;8.38;;;3.60;;
57191;SDS011;43052;52.588;13.396;2023-05-02T14:32:32;7.40;;;3.42;;
57191;SDS011;43052;52.588;13.396;2023-05-02T14:34:57;7.32;;;3.47;;
57191;SDS011;43052;52.588;13.396;2023-05-02T14:37:23;7.57;;;3.40;;
57191;SDS011;43052;52.588;13.396;2023-05-02T14:39:48;8.48;;;3.60;;
57191;SDS011;43052;52.588;13.396;2023-05-02T14:42:16;9.10;;;3.60;;
57191;SDS011;43052;52.588;13.396;2023-05-02T14:44:41;8.27;;;3.60;;
57191;SDS011;43052;52.588;13.396;2023-05-02T14:47:07;7.97;;;3.30;;
57191;SDS011;43052;52.588;13.396;2023-05-02T14:49:32;6.72;;;3.60;;
57191;SDS011;43052;52.588;13.396;2023-05-02T14:51:57;7.90;;;3.63;;
57191;SDS011;43052;52.588;13.396;2023-05-02T14:54:26;11.60;;;3.78;;
57191;SDS011;43052;52.588;13.396;2023-05-02T14:56:52;10.10;;;3.78;;
57191;SDS011;43052;52.588;13.396;2023-05-02T14:59:17;6.65;;;3.70;;
57191;SDS011;43052;52.588;13.396;2023-05-02T15:01:43;9.43;;;3.90;;
57191;SDS011;43052;52.588;13.396;2023-05-02T15:04:08;7.43;;;3.60;;
57191;SDS011;43052;52.588;13.396;2023-05-02T15:06:34;12.77;;;5.82;;
57191;SDS011;43052;52.588;13.396;2023-05-02T15:08:59;6.35;;;3.40;;
57191;SDS011;43052;52.588;13.396;2023-05-02T15:11:25;11.88;;;5.22;;
57191;SDS011;43052;52.588;13.396;2023-05-02T15:13:51;6.53;;;3.55;;
57191;SDS011;43052;52.588;13.396;2023-05-02T15:16:16;10.82;;;3.80;;